sensor_id;sensor_type;location;lat;lon;timestamp;temperature;humidity
65472;DHT22;52068;50.710;14.492;2023-11-21T00:01:54;28.90;34.90
65472;DHT22;52068;50.710;14.492;2023-11-21T00:04:19;28.83;35.02
65472;DHT22;52068;50.710;14.492;2023-11-21T00:06:45;28.69;35.22
65472;DHT22;52068;50.710;14.492;2023-11-21T00:09:13;28.59;35.40
65472;DHT22;52068;50.710;14.492;2023-11-21T00:11:40;28.42;35.71
65472;DHT22;52068;50.710;14.492;2023-11-21T00:14:06;28.29;35.89
65472;DHT22;52068;50.710;14.492;2023-11-21T00:16:31;28.16;36.18
65472;DHT22;52068;50.710;14.492;2023-11-21T00:18:56;28.02;36.43
65472;DHT22;52068;50.710;14.492;2023-11-21T00:21:22;27.93;36.60
65472;DHT22;52068;50.710;14.492;2023-11-21T00:23:47;27.83;36.76
65472;DHT22;52068;50.710;14.492;2023-11-21T00:26:13;27.74;36.93
65472;DHT22;52068;50.710;14.492;2023-11-21T00:28:39;27.66;37.20
65472;DHT22;52068;50.710;14.492;2023-11-21T00:31:05;27.57;37.45
65472;DHT22;52068;50.710;14.492;2023-11-21T00:33:30;27.50;37.51
65472;DHT22;52068;50.710;14.492;2023-11-21T00:35:56;27.44;37.68
65472;DHT22;52068;50.710;14.492;2023-11-21T00:38:21;27.37;37.74
65472;DHT22;52068;50.710;14.492;2023-11-21T00:40:47;27.32;37.79
65472;DHT22;52068;50.710;14.492;2023-11-21T00:43:12;27.27;37.90
65472;DHT22;52068;50.710;14.492;2023-11-21T00:45:38;27.20;37.95
65472;DHT22;52068;50.710;14.492;2023-11-21T00:48:05;27.15;37.96
65472;DHT22;52068;50.710;14.492;2023-11-21T00:50:31;27.15;38.00
65472;DHT22;52068;50.710;14.492;2023-11-21T00:52:56;27.15;37.99
65472;DHT22;52068;50.710;14.492;2023-11-21T00:55:22;27.13;37.97
65472;DHT22;52068;50.710;14.492;2023-11-21T00:57:47;27.10;37.95
65472;DHT22;52068;50.710;14.492;2023-11-21T01:00:13;27.07;38.06
65472;DHT22;52068;50.710;14.492;2023-11-21T01:02:42;27.06;38.03
65472;DHT22;52068;50.710;14.492;2023-11-21T01:05:09;27.03;38.03
65472;DHT22;52068;50.710;14.492;2023-11-21T01:07:34;26.98;38.13
65472;DHT22;52068;50.710;14.492;2023-11-21T01:09:59;26.98;38.14
65472;DHT22;52068;50.710;14.492;2023-11-21T01:12:25;26.98;38.11
65472;DHT22;52068;50.710;14.492;2023-11-21T01:14:51;26.98;38.14
65472;DHT22;52068;50.710;14.492;2023-11-21T01:17:16;26.99;38.14
65472;DHT22;52068;50.710;14.492;2023-11-21T01:19:43;26.96;38.08
65472;DHT22;52068;50.710;14.492;2023-11-21T01:22:08;26.98;38.12
65472;DHT22;52068;50.710;14.492;2023-11-21T01:24:34;26.98;38.18
65472;DHT22;52068;50.710;14.492;2023-11-21T01:26:59;26.98;38.25
65472;DHT22;52068;50.710;14.492;2023-11-21T01:29:25;26.98;38.26
65472;DHT22;52068;50.710;14.492;2023-11-21T01:31:50;26.94;38.29
65472;DHT22;52068;50.710;14.492;2023-11-21T01:34:17;26.94;38.38
65472;DHT22;52068;50.710;14.492;2023-11-21T01:36:42;26.91;38.53
65472;DHT22;52068;50.710;14.492;2023-11-21T01:39:07;26.91;38.57
65472;DHT22;52068;50.710;14.492;2023-11-21T01:41:35;26.88;38.62
65472;DHT22;52068;50.710;14.492;2023-11-21T01:44:02;26.88;38.68
65472;DHT22;52068;50.710;14.492;2023-11-21T01:46:27;26.88;38.72
65472;DHT22;52068;50.710;14.492;2023-11-21T01:48:54;26.86;38.80
65472;DHT22;52068;50.710;14.492;2023-11-21T01:51:19;26.84;38.71
65472;DHT22;52068;50.710;14.492;2023-11-21T01:53:45;26.84;38.79
65472;DHT22;52068;50.710;14.492;2023-11-21T01:56:12;26.82;38.78
65472;DHT22;52068;50.710;14.492;2023-11-21T01:58:39;26.82;38.78
65472;DHT22;52068;50.710;14.492;2023-11-21T02:01:04;26.79;38.81
65472;DHT22;52068;50.710;14.492;2023-11-21T02:03:30;26.79;38.77
65472;DHT22;52068;50.710;14.492;2023-11-21T02:05:56;26.84;38.74
65472;DHT22;52068;50.710;14.492;2023-11-21T02:08:21;26.85;38.62
65472;DHT22;52068;50.710;14.492;2023-11-21T02:10:47;26.84;38.73
65472;DHT22;52068;50.710;14.492;2023-11-21T02:13:13;26.86;38.62
65472;DHT22;52068;50.710;14.492;2023-11-21T02:15:38;26.86;38.54
65472;DHT22;52068;50.710;14.492;2023-11-21T02:18:04;26.86;38.41
65472;DHT22;52068;50.710;14.492;2023-11-21T02:20:31;26.86;38.47
65472;DHT22;52068;50.710;14.492;2023-11-21T02:23:00;26.89;38.45
65472;DHT22;52068;50.710;14.492;2023-11-21T02:25:29;26.89;38.37
65472;DHT22;52068;50.710;14.492;2023-11-21T02:28:01;26.85;38.39
65472;DHT22;52068;50.710;14.492;2023-11-21T02:30:28;26.88;38.45
65472;DHT22;52068;50.710;14.492;2023-11-21T02:32:54;26.88;38.41
65472;DHT22;52068;50.710;14.492;2023-11-21T02:35:20;26.91;38.23
65472;DHT22;52068;50.710;14.492;2023-11-21T02:37:51;26.91;38.31
65472;DHT22;52068;50.710;14.492;2023-11-21T02:40:17;26.89;38.41
65472;DHT22;52068;50.710;14.492;2023-11-21T02:42:46;26.89;38.48
65472;DHT22;52068;50.710;14.492;2023-11-21T02:45:13;26.86;38.56
65472;DHT22;52068;50.710;14.492;2023-11-21T02:47:39;26.88;38.55
65472;DHT22;52068;50.710;14.492;2023-11-21T02:50:05;26.86;38.56
65472;DHT22;52068;50.710;14.492;2023-11-21T02:52:33;26.82;38.72
65472;DHT22;52068;50.710;14.492;2023-11-21T02:54:59;26.85;38.54
65472;DHT22;52068;50.710;14.492;2023-11-21T02:57:24;26.84;38.56
65472;DHT22;52068;50.710;14.492;2023-11-21T02:59:50;26.84;38.65
65472;DHT22;52068;50.710;14.492;2023-11-21T03:02:15;26.84;38.66
65472;DHT22;52068;50.710;14.492;2023-11-21T03:04:41;26.79;38.69
65472;DHT22;52068;50.710;14.492;2023-11-21T03:07:08;26.79;38.71
65472;DHT22;52068;50.710;14.492;2023-11-21T03:09:33;26.79;38.71
65472;DHT22;52068;50.710;14.492;2023-11-21T03:11:59;26.78;38.59
65472;DHT22;52068;50.710;14.492;2023-11-21T03:14:24;26.79;38.61
65472;DHT22;52068;50.710;14.492;2023-11-21T03:16:50;26.76;38.56
65472;DHT22;52068;50.710;14.492;2023-11-21T03:19:15;26.74;38.62
65472;DHT22;52068;50.710;14.492;2023-11-21T03:21:40;26.72;38.63
65472;DHT22;52068;50.710;14.492;2023-11-21T03:24:06;26.71;38.61
65472;DHT22;52068;50.710;14.492;2023-11-21T03:26:32;26.74;38.62
65472;DHT22;52068;50.710;14.492;2023-11-21T03:28:58;26.72;38.63
65472;DHT22;52068;50.710;14.492;2023-11-21T03:31:23;26.75;38.51
65472;DHT22;52068;50.710;14.492;2023-11-21T03:33:49;26.84;38.37
65472;DHT22;52068;50.710;14.492;2023-11-21T03:36:14;26.95;38.08
65472;DHT22;52068;50.710;14.492;2023-11-21T03:38:40;27.20;37.65
65472;DHT22;52068;50.710;14.492;2023-11-21T03:41:06;27.50;37.04
65472;DHT22;52068;50.710;14.492;2023-11-21T03:43:32;27.91;36.38
65472;DHT22;52068;50.710;14.492;2023-11-21T03:45:57;28.29;35.71
65472;DHT22;52068;50.710;14.492;2023-11-21T03:48:22;28.66;35.06
65472;DHT22;52068;50.710;14.492;2023-11-21T03:50:48;28.99;34.44
65472;DHT22;52068;50.710;14.492;2023-11-21T03:53:14;29.28;34.08
65472;DHT22;52068;50.710;14.492;2023-11-21T03:55:39;29.50;33.68
65472;DHT22;52068;50.710;14.492;2023-11-21T03:58:04;29.65;33.35
65472;DHT22;52068;50.710;14.492;2023-11-21T04:00:30;29.69;33.29
65472;DHT22;52068;50.710;14.492;2023-11-21T04:02:56;29.64;33.41
65472;DHT22;52068;50.710;14.492;2023-11-21T04:05:23;29.51;33.63
65472;DHT22;52068;50.710;14.492;2023-11-21T04:07:51;29.31;34.07
65472;DHT22;52068;50.710;14.492;2023-11-21T04:10:17;29.03;34.36
65472;DHT22;52068;50.710;14.492;2023-11-21T04:12:43;28.73;34.87
65472;DHT22;52068;50.710;14.492;2023-11-21T04:15:10;28.41;35.38
65472;DHT22;52068;50.710;14.492;2023-11-21T04:17:35;28.09;35.83
65472;DHT22;52068;50.710;14.492;2023-11-21T04:20:03;27.74;36.51
65472;DHT22;52068;50.710;14.492;2023-11-21T04:22:33;27.36;37.16
65472;DHT22;52068;50.710;14.492;2023-11-21T04:24:58;27.02;37.82
65472;DHT22;52068;50.710;14.492;2023-11-21T04:27:24;26.71;38.50
65472;DHT22;52068;50.710;14.492;2023-11-21T04:29:49;26.43;38.94
65472;DHT22;52068;50.710;14.492;2023-11-21T04:32:15;26.20;39.43
65472;DHT22;52068;50.710;14.492;2023-11-21T04:34:41;26.08;39.71
65472;DHT22;52068;50.710;14.492;2023-11-21T04:37:06;26.06;39.73
65472;DHT22;52068;50.710;14.492;2023-11-21T04:39:32;26.14;39.57
65472;DHT22;52068;50.710;14.492;2023-11-21T04:41:57;26.38;39.08
65472;DHT22;52068;50.710;14.492;2023-11-21T04:44:22;26.69;38.56
65472;DHT22;52068;50.710;14.492;2023-11-21T04:46:48;26.98;37.94
65472;DHT22;52068;50.710;14.492;2023-11-21T04:49:14;27.27;37.34
65472;DHT22;52068;50.710;14.492;2023-11-21T04:51:39;27.61;36.78
65472;DHT22;52068;50.710;14.492;2023-11-21T04:54:05;27.88;36.31
65472;DHT22;52068;50.710;14.492;2023-11-21T04:56:31;28.12;35.86
65472;DHT22;52068;50.710;14.492;2023-11-21T04:58:56;28.35;35.47
65472;DHT22;52068;50.710;14.492;2023-11-21T05:01:21;28.55;35.07
65472;DHT22;52068;50.710;14.492;2023-11-21T05:03:47;28.69;34.90
65472;DHT22;52068;50.710;14.492;2023-11-21T05:06:14;28.83;34.72
65472;DHT22;52068;50.710;14.492;2023-11-21T05:08:40;28.83;34.73
65472;DHT22;52068;50.710;14.492;2023-11-21T05:11:05;28.79;34.78
65472;DHT22;52068;50.710;14.492;2023-11-21T05:13:33;28.67;34.99
65472;DHT22;52068;50.710;14.492;2023-11-21T05:15:59;28.51;35.22
65472;DHT22;52068;50.710;14.492;2023-11-21T05:18:25;28.31;35.63
65472;DHT22;52068;50.710;14.492;2023-11-21T05:20:55;28.11;35.99
65472;DHT22;52068;50.710;14.492;2023-11-21T05:23:20;27.84;36.39
65472;DHT22;52068;50.710;14.492;2023-11-21T05:25:46;27.58;36.88
65472;DHT22;52068;50.710;14.492;2023-11-21T05:28:12;27.32;37.31
65472;DHT22;52068;50.710;14.492;2023-11-21T05:30:37;27.05;37.88
65472;DHT22;52068;50.710;14.492;2023-11-21T05:33:04;26.79;38.37
65472;DHT22;52068;50.710;14.492;2023-11-21T05:35:29;26.54;38.92
65472;DHT22;52068;50.710;14.492;2023-11-21T05:37:55;26.30;39.34
65472;DHT22;52068;50.710;14.492;2023-11-21T05:40:20;26.07;39.68
65472;DHT22;52068;50.710;14.492;2023-11-21T05:42:47;25.89;40.08
65472;DHT22;52068;50.710;14.492;2023-11-21T05:45:13;25.82;40.13
65472;DHT22;52068;50.710;14.492;2023-11-21T05:47:40;25.80;40.26
65472;DHT22;52068;50.710;14.492;2023-11-21T05:50:07;25.89;40.04
65472;DHT22;52068;50.710;14.492;2023-11-21T05:52:38;26.01;39.81
65472;DHT22;52068;50.710;14.492;2023-11-21T05:55:07;26.24;39.32
65472;DHT22;52068;50.710;14.492;2023-11-21T05:57:37;26.51;38.85
65472;DHT22;52068;50.710;14.492;2023-11-21T06:00:07;26.81;38.27
65472;DHT22;52068;50.710;14.492;2023-11-21T06:02:40;27.06;37.78
65472;DHT22;52068;50.710;14.492;2023-11-21T06:05:07;27.33;37.33
65472;DHT22;52068;50.710;14.492;2023-11-21T06:07:33;27.53;36.91
65472;DHT22;52068;50.710;14.492;2023-11-21T06:09:58;27.76;36.58
65472;DHT22;52068;50.710;14.492;2023-11-21T06:12:24;27.94;36.31
65472;DHT22;52068;50.710;14.492;2023-11-21T06:14:50;28.09;36.00
65472;DHT22;52068;50.710;14.492;2023-11-21T06:17:16;28.18;35.79
65472;DHT22;52068;50.710;14.492;2023-11-21T06:19:43;28.25;35.68
65472;DHT22;52068;50.710;14.492;2023-11-21T06:22:10;28.25;35.72
65472;DHT22;52068;50.710;14.492;2023-11-21T06:24:36;28.16;35.88
65472;DHT22;52068;50.710;14.492;2023-11-21T06:27:03;28.07;36.06
65472;DHT22;52068;50.710;14.492;2023-11-21T06:29:30;27.88;36.34
65472;DHT22;52068;50.710;14.492;2023-11-21T06:31:55;27.71;36.70
65472;DHT22;52068;50.710;14.492;2023-11-21T06:34:20;27.50;37.02
65472;DHT22;52068;50.710;14.492;2023-11-21T06:36:47;27.30;37.40
65472;DHT22;52068;50.710;14.492;2023-11-21T06:39:12;27.05;37.79
65472;DHT22;52068;50.710;14.492;2023-11-21T06:41:40;26.79;38.29
65472;DHT22;52068;50.710;14.492;2023-11-21T06:44:05;26.62;38.68
65472;DHT22;52068;50.710;14.492;2023-11-21T06:46:31;26.43;39.17
65472;DHT22;52068;50.710;14.492;2023-11-21T06:48:56;26.31;39.59
65472;DHT22;52068;50.710;14.492;2023-11-21T06:51:22;26.16;39.20
65472;DHT22;52068;50.710;14.492;2023-11-21T06:53:47;26.17;38.17
65472;DHT22;52068;50.710;14.492;2023-11-21T06:56:18;26.21;38.13
65472;DHT22;52068;50.710;14.492;2023-11-21T06:58:45;26.23;38.02
65472;DHT22;52068;50.710;14.492;2023-11-21T07:01:12;26.47;37.63
65472;DHT22;52068;50.710;14.492;2023-11-21T07:03:38;26.78;36.90
65472;DHT22;52068;50.710;14.492;2023-11-21T07:06:05;27.22;36.27
65472;DHT22;52068;50.710;14.492;2023-11-21T07:08:30;27.64;35.49
65472;DHT22;52068;50.710;14.492;2023-11-21T07:10:55;28.09;34.81
65472;DHT22;52068;50.710;14.492;2023-11-21T07:13:21;28.45;33.97
65472;DHT22;52068;50.710;14.492;2023-11-21T07:15:46;28.77;33.25
65472;DHT22;52068;50.710;14.492;2023-11-21T07:18:13;29.02;32.70
65472;DHT22;52068;50.710;14.492;2023-11-21T07:20:38;29.24;32.36
65472;DHT22;52068;50.710;14.492;2023-11-21T07:23:04;29.38;31.93
65472;DHT22;52068;50.710;14.492;2023-11-21T07:25:31;29.50;31.71
65472;DHT22;52068;50.710;14.492;2023-11-21T07:27:57;29.53;31.62
65472;DHT22;52068;50.710;14.492;2023-11-21T07:30:22;29.50;31.69
65472;DHT22;52068;50.710;14.492;2023-11-21T07:32:48;29.38;31.90
65472;DHT22;52068;50.710;14.492;2023-11-21T07:35:13;29.23;32.12
65472;DHT22;52068;50.710;14.492;2023-11-21T07:37:39;29.00;32.61
65472;DHT22;52068;50.710;14.492;2023-11-21T07:40:05;28.75;33.18
65472;DHT22;52068;50.710;14.492;2023-11-21T07:42:31;28.53;33.64
65472;DHT22;52068;50.710;14.492;2023-11-21T07:44:56;28.29;34.17
65472;DHT22;52068;50.710;14.492;2023-11-21T07:47:21;28.01;34.65
65472;DHT22;52068;50.710;14.492;2023-11-21T07:49:47;27.76;35.11
65472;DHT22;52068;50.710;14.492;2023-11-21T07:52:13;27.53;35.50
65472;DHT22;52068;50.710;14.492;2023-11-21T07:54:39;27.35;36.00
65472;DHT22;52068;50.710;14.492;2023-11-21T07:57:05;27.25;36.09
65472;DHT22;52068;50.710;14.492;2023-11-21T07:59:31;27.15;36.35
65472;DHT22;52068;50.710;14.492;2023-11-21T08:01:56;27.07;36.53
65472;DHT22;52068;50.710;14.492;2023-11-21T08:04:21;26.98;36.76
65472;DHT22;52068;50.710;14.492;2023-11-21T08:06:47;26.85;36.94
65472;DHT22;52068;50.710;14.492;2023-11-21T08:09:12;26.76;37.13
65472;DHT22;52068;50.710;14.492;2023-11-21T08:11:38;26.68;37.35
65472;DHT22;52068;50.710;14.492;2023-11-21T08:14:04;26.56;37.55
65472;DHT22;52068;50.710;14.492;2023-11-21T08:16:30;26.48;37.72
65472;DHT22;52068;50.710;14.492;2023-11-21T08:18:55;26.35;38.05
65472;DHT22;52068;50.710;14.492;2023-11-21T08:21:21;26.28;38.18
65472;DHT22;52068;50.710;14.492;2023-11-21T08:23:49;26.21;38.33
65472;DHT22;52068;50.710;14.492;2023-11-21T08:26:18;26.10;38.46
65472;DHT22;52068;50.710;14.492;2023-11-21T08:28:44;26.04;38.67
65472;DHT22;52068;50.710;14.492;2023-11-21T08:31:09;25.98;38.76
65472;DHT22;52068;50.710;14.492;2023-11-21T08:33:35;25.94;38.99
65472;DHT22;52068;50.710;14.492;2023-11-21T08:36:00;25.84;39.19
65472;DHT22;52068;50.710;14.492;2023-11-21T08:38:26;25.79;39.23
65472;DHT22;52068;50.710;14.492;2023-11-21T08:40:53;25.73;39.52
65472;DHT22;52068;50.710;14.492;2023-11-21T08:43:19;25.72;39.54
65472;DHT22;52068;50.710;14.492;2023-11-21T08:45:45;25.72;39.57
65472;DHT22;52068;50.710;14.492;2023-11-21T08:48:10;25.65;39.72
65472;DHT22;52068;50.710;14.492;2023-11-21T08:50:37;25.67;39.66
65472;DHT22;52068;50.710;14.492;2023-11-21T08:53:02;25.63;39.74
65472;DHT22;52068;50.710;14.492;2023-11-21T08:55:27;25.65;39.64
65472;DHT22;52068;50.710;14.492;2023-11-21T08:57:53;25.66;39.63
65472;DHT22;52068;50.710;14.492;2023-11-21T09:00:19;25.59;39.81
65472;DHT22;52068;50.710;14.492;2023-11-21T09:02:44;25.56;39.93
65472;DHT22;52068;50.710;14.492;2023-11-21T09:05:11;25.56;40.04
65472;DHT22;52068;50.710;14.492;2023-11-21T09:07:37;25.50;40.17
65472;DHT22;52068;50.710;14.492;2023-11-21T09:10:04;25.49;40.17
65472;DHT22;52068;50.710;14.492;2023-11-21T09:12:32;25.52;40.16
65472;DHT22;52068;50.710;14.492;2023-11-21T09:14:58;25.36;37.06
65472;DHT22;52068;50.710;14.492;2023-11-21T09:17:23;25.16;36.64
65472;DHT22;52068;50.710;14.492;2023-11-21T09:19:49;25.28;36.57
65472;DHT22;52068;50.710;14.492;2023-11-21T09:22:17;26.18;34.84
65472;DHT22;52068;50.710;14.492;2023-11-21T09:24:42;27.46;32.41
65472;DHT22;52068;50.710;14.492;2023-11-21T09:27:08;28.83;30.21
65472;DHT22;52068;50.710;14.492;2023-11-21T09:29:35;30.16;27.69
65472;DHT22;52068;50.710;14.492;2023-11-21T09:32:00;31.55;26.06
65472;DHT22;52068;50.710;14.492;2023-11-21T09:34:26;32.82;26.04
65472;DHT22;52068;50.710;14.492;2023-11-21T09:36:52;33.86;25.84
65472;DHT22;52068;50.710;14.492;2023-11-21T09:39:18;35.03;24.67
65472;DHT22;52068;50.710;14.492;2023-11-21T09:41:48;35.93;23.75
65472;DHT22;52068;50.710;14.492;2023-11-21T09:44:18;36.57;22.97
65472;DHT22;52068;50.710;14.492;2023-11-21T09:46:44;37.19;22.52
65472;DHT22;52068;50.710;14.492;2023-11-21T09:49:13;37.57;22.18
65472;DHT22;52068;50.710;14.492;2023-11-21T09:51:42;37.94;21.77
65472;DHT22;52068;50.710;14.492;2023-11-21T09:54:10;37.95;21.84
65472;DHT22;52068;50.710;14.492;2023-11-21T09:56:37;37.77;21.94
65472;DHT22;52068;50.710;14.492;2023-11-21T09:59:04;37.51;22.42
65472;DHT22;52068;50.710;14.492;2023-11-21T10:01:36;37.02;22.98
65472;DHT22;52068;50.710;14.492;2023-11-21T10:04:02;36.44;23.69
65472;DHT22;52068;50.710;14.492;2023-11-21T10:06:28;35.84;24.04
65472;DHT22;52068;50.710;14.492;2023-11-21T10:08:54;35.23;24.73
65472;DHT22;52068;50.710;14.492;2023-11-21T10:11:24;34.59;25.64
65472;DHT22;52068;50.710;14.492;2023-11-21T10:13:53;34.00;26.55
65472;DHT22;52068;50.710;14.492;2023-11-21T10:16:19;33.43;26.99
65472;DHT22;52068;50.710;14.492;2023-11-21T10:18:52;32.84;27.90
65472;DHT22;52068;50.710;14.492;2023-11-21T10:21:21;32.28;28.52
65472;DHT22;52068;50.710;14.492;2023-11-21T10:23:47;31.80;29.30
65472;DHT22;52068;50.710;14.492;2023-11-21T10:26:13;31.32;29.81
65472;DHT22;52068;50.710;14.492;2023-11-21T10:29:01;30.80;30.83
65472;DHT22;52068;50.710;14.492;2023-11-21T10:31:30;30.33;31.40
65472;DHT22;52068;50.710;14.492;2023-11-21T10:34:19;29.92;31.94
65472;DHT22;52068;50.710;14.492;2023-11-21T10:36:45;29.51;32.54
65472;DHT22;52068;50.710;14.492;2023-11-21T10:39:20;29.17;33.25
65472;DHT22;52068;50.710;14.492;2023-11-21T10:41:49;28.82;33.83
65472;DHT22;52068;50.710;14.492;2023-11-21T10:44:15;28.49;34.34
65472;DHT22;52068;50.710;14.492;2023-11-21T10:46:54;28.15;34.73
65472;DHT22;52068;50.710;14.492;2023-11-21T10:49:25;27.84;35.30
65472;DHT22;52068;50.710;14.492;2023-11-21T10:51:52;27.53;35.82
65472;DHT22;52068;50.710;14.492;2023-11-21T10:54:22;27.25;36.41
65472;DHT22;52068;50.710;14.492;2023-11-21T10:56:58;27.06;37.17
65472;DHT22;52068;50.710;14.492;2023-11-21T10:59:28;27.19;36.84
65472;DHT22;52068;50.710;14.492;2023-11-21T11:01:57;27.61;36.16
65472;DHT22;52068;50.710;14.492;2023-11-21T11:04:25;28.25;35.16
65472;DHT22;52068;50.710;14.492;2023-11-21T11:06:57;28.86;34.40
65472;DHT22;52068;50.710;14.492;2023-11-21T11:09:24;29.44;33.18
65472;DHT22;52068;50.710;14.492;2023-11-21T11:11:51;29.89;32.40
65472;DHT22;52068;50.710;14.492;2023-11-21T11:14:17;30.16;31.95
65472;DHT22;52068;50.710;14.492;2023-11-21T11:16:44;30.13;32.08
65472;DHT22;52068;50.710;14.492;2023-11-21T11:19:10;30.01;32.29
65472;DHT22;52068;50.710;14.492;2023-11-21T11:29:56;28.42;34.87
65472;DHT22;52068;50.710;14.492;2023-11-21T11:35:19;27.56;36.35
65472;DHT22;52068;50.710;14.492;2023-11-21T11:37:47;27.23;36.93
65472;DHT22;52068;50.710;14.492;2023-11-21T11:40:12;26.95;37.64
65472;DHT22;52068;50.710;14.492;2023-11-21T11:42:38;26.71;38.08
65472;DHT22;52068;50.710;14.492;2023-11-21T11:45:17;26.44;38.56
65472;DHT22;52068;50.710;14.492;2023-11-21T11:47:42;26.23;38.91
65472;DHT22;52068;50.710;14.492;2023-11-21T11:50:11;26.21;39.02
65472;DHT22;52068;50.710;14.492;2023-11-21T11:55:13;27.15;37.31
65472;DHT22;52068;50.710;14.492;2023-11-21T11:57:43;27.94;35.89
65472;DHT22;52068;50.710;14.492;2023-11-21T12:00:17;28.79;34.52
65472;DHT22;52068;50.710;14.492;2023-11-21T12:02:50;29.54;33.22
65472;DHT22;52068;50.710;14.492;2023-11-21T12:05:17;30.08;32.34
65472;DHT22;52068;50.710;14.492;2023-11-21T12:10:19;30.47;31.67
65472;DHT22;52068;50.710;14.492;2023-11-21T12:12:52;30.39;31.80
65472;DHT22;52068;50.710;14.492;2023-11-21T12:15:19;30.15;32.15
65472;DHT22;52068;50.710;14.492;2023-11-21T12:17:45;29.85;32.64
65472;DHT22;52068;50.710;14.492;2023-11-21T12:20:12;29.51;33.17
65472;DHT22;52068;50.710;14.492;2023-11-21T12:22:46;29.13;33.84
65472;DHT22;52068;50.710;14.492;2023-11-21T12:25:21;28.70;34.54
65472;DHT22;52068;50.710;14.492;2023-11-21T12:27:49;28.31;35.16
65472;DHT22;52068;50.710;14.492;2023-11-21T12:30:16;27.88;35.87
65472;DHT22;52068;50.710;14.492;2023-11-21T12:32:49;27.51;36.60
65472;DHT22;52068;50.710;14.492;2023-11-21T12:35:16;27.17;37.12
65472;DHT22;52068;50.710;14.492;2023-11-21T12:37:45;26.89;37.58
65472;DHT22;52068;50.710;14.492;2023-11-21T12:40:11;26.65;38.12
65472;DHT22;52068;50.710;14.492;2023-11-21T12:42:41;26.40;38.65
65472;DHT22;52068;50.710;14.492;2023-11-21T12:47:43;26.59;38.40
65472;DHT22;52068;50.710;14.492;2023-11-21T12:50:09;27.17;37.36
65472;DHT22;52068;50.710;14.492;2023-11-21T12:52:42;28.01;35.88
65472;DHT22;52068;50.710;14.492;2023-11-21T12:55:09;28.92;34.38
65472;DHT22;52068;50.710;14.492;2023-11-21T12:57:34;29.68;32.93
65472;DHT22;52068;50.710;14.492;2023-11-21T13:00:04;30.37;31.85
65472;DHT22;52068;50.710;14.492;2023-11-21T13:02:37;30.88;31.04
65472;DHT22;52068;50.710;14.492;2023-11-21T13:05:04;31.15;30.71
65472;DHT22;52068;50.710;14.492;2023-11-21T13:07:41;31.21;30.46
65472;DHT22;52068;50.710;14.492;2023-11-21T13:10:14;31.12;30.66
65472;DHT22;52068;50.710;14.492;2023-11-21T13:12:45;30.88;30.98
65472;DHT22;52068;50.710;14.492;2023-11-21T13:15:14;30.53;31.39
65472;DHT22;52068;50.710;14.492;2023-11-21T13:17:43;30.16;32.04
65472;DHT22;52068;50.710;14.492;2023-11-21T13:20:10;29.76;32.61
65472;DHT22;52068;50.710;14.492;2023-11-21T13:22:48;29.28;33.43
65472;DHT22;52068;50.710;14.492;2023-11-21T13:25:15;28.77;34.20
65472;DHT22;52068;50.710;14.492;2023-11-21T13:27:43;28.32;34.93
65472;DHT22;52068;50.710;14.492;2023-11-21T13:30:10;27.94;35.66
65472;DHT22;52068;50.710;14.492;2023-11-21T13:32:35;27.58;36.24
65472;DHT22;52068;50.710;14.492;2023-11-21T13:35:00;27.30;36.72
65472;DHT22;52068;50.710;14.492;2023-11-21T13:37:26;27.02;37.25
65472;DHT22;52068;50.710;14.492;2023-11-21T13:39:53;26.76;37.69
65472;DHT22;52068;50.710;14.492;2023-11-21T13:42:20;26.54;38.05
65472;DHT22;52068;50.710;14.492;2023-11-21T13:44:56;26.43;38.44
65472;DHT22;52068;50.710;14.492;2023-11-21T13:47:21;26.44;38.41
65472;DHT22;52068;50.710;14.492;2023-11-21T13:49:50;26.69;38.01
65472;DHT22;52068;50.710;14.492;2023-11-21T13:52:16;27.16;37.18
65472;DHT22;52068;50.710;14.492;2023-11-21T13:54:42;27.71;36.38
65472;DHT22;52068;50.710;14.492;2023-11-21T13:57:08;28.26;35.39
65472;DHT22;52068;50.710;14.492;2023-11-21T13:59:34;28.69;34.60
65472;DHT22;52068;50.710;14.492;2023-11-21T14:02:02;28.97;34.11
65472;DHT22;52068;50.710;14.492;2023-11-21T14:04:42;29.06;33.87
65472;DHT22;52068;50.710;14.492;2023-11-21T14:07:22;28.96;33.95
65472;DHT22;52068;50.710;14.492;2023-11-21T14:10:01;28.80;34.24
65472;DHT22;52068;50.710;14.492;2023-11-21T14:12:27;28.55;34.67
65472;DHT22;52068;50.710;14.492;2023-11-21T14:14:53;28.24;35.10
65472;DHT22;52068;50.710;14.492;2023-11-21T14:17:20;27.88;35.92
65472;DHT22;52068;50.710;14.492;2023-11-21T14:19:49;27.54;36.65
65472;DHT22;52068;50.710;14.492;2023-11-21T14:22:14;27.16;37.41
65472;DHT22;52068;50.710;14.492;2023-11-21T14:24:39;26.89;37.85
65472;DHT22;52068;50.710;14.492;2023-11-21T14:27:12;26.65;38.43
65472;DHT22;52068;50.710;14.492;2023-11-21T14:29:37;26.44;38.85
65472;DHT22;52068;50.710;14.492;2023-11-21T14:32:04;26.23;39.29
65472;DHT22;52068;50.710;14.492;2023-11-21T14:34:30;26.03;39.79
65472;DHT22;52068;50.710;14.492;2023-11-21T14:36:56;25.84;40.18
65472;DHT22;52068;50.710;14.492;2023-11-21T14:39:22;25.83;40.29
65472;DHT22;52068;50.710;14.492;2023-11-21T14:41:54;26.03;40.01
65472;DHT22;52068;50.710;14.492;2023-11-21T14:44:23;26.38;39.33
65472;DHT22;52068;50.710;14.492;2023-11-21T14:46:52;26.82;38.56
65472;DHT22;52068;50.710;14.492;2023-11-21T14:49:18;27.25;37.86
65472;DHT22;52068;50.710;14.492;2023-11-21T14:51:50;27.70;37.13
65472;DHT22;52068;50.710;14.492;2023-11-21T14:54:30;28.08;36.55
65472;DHT22;52068;50.710;14.492;2023-11-21T14:57:13;28.24;36.25
65472;DHT22;52068;50.710;14.492;2023-11-21T14:59:48;28.29;36.22
65472;DHT22;52068;50.710;14.492;2023-11-21T15:02:17;28.19;36.40
65472;DHT22;52068;50.710;14.492;2023-11-21T15:04:47;28.02;36.79
65472;DHT22;52068;50.710;14.492;2023-11-21T15:07:14;27.78;37.37
65472;DHT22;52068;50.710;14.492;2023-11-21T15:09:39;27.47;37.92
65472;DHT22;52068;50.710;14.492;2023-11-21T15:12:09;27.15;38.61
65472;DHT22;52068;50.710;14.492;2023-11-21T15:14:44;26.88;39.20
65472;DHT22;52068;50.710;14.492;2023-11-21T15:17:16;26.61;39.82
65472;DHT22;52068;50.710;14.492;2023-11-21T15:19:51;26.35;40.22
65472;DHT22;52068;50.710;14.492;2023-11-21T15:22:16;26.13;40.66
65472;DHT22;52068;50.710;14.492;2023-11-21T15:24:45;25.90;41.19
65472;DHT22;52068;50.710;14.492;2023-11-21T15:27:15;25.69;41.83
65472;DHT22;52068;50.710;14.492;2023-11-21T15:29:41;25.52;41.94
65472;DHT22;52068;50.710;14.492;2023-11-21T15:32:07;25.32;42.36
65472;DHT22;52068;50.710;14.492;2023-11-21T15:34:34;25.25;42.79